createdAt,value
2023-04-19T00:00:08.279Z,99.90
2023-04-19T00:02:38.271Z,99.90
2023-04-19T00:05:07.388Z,99.90
2023-04-19T00:07:35.531Z,99.90
2023-04-19T00:10:03.721Z,99.90
2023-04-19T00:12:31.737Z,99.90
2023-04-19T00:14:59.800Z,99.90
2023-04-19T00:17:29.135Z,99.90
2023-04-19T00:19:58.779Z,99.90
2023-04-19T00:22:26.867Z,99.90
2023-04-19T00:24:54.880Z,99.90
2023-04-19T00:27:22.830Z,99.90
2023-04-19T00:29:50.802Z,99.90
2023-04-19T00:32:18.777Z,99.90
2023-04-19T00:34:47.179Z,99.90
2023-04-19T00:37:16.648Z,99.90
2023-04-19T00:39:44.651Z,99.90
2023-04-19T00:42:12.626Z,99.90
2023-04-19T00:44:40.573Z,99.90
2023-04-19T00:47:08.876Z,99.90
2023-04-19T00:49:37.129Z,99.90
2023-04-19T00:52:06.172Z,99.90
2023-04-19T00:54:35.888Z,99.90
2023-04-19T00:57:04.010Z,99.90
2023-04-19T00:59:32.498Z,99.90
2023-04-19T01:02:00.680Z,99.90
2023-04-19T01:04:28.951Z,99.90
2023-04-19T01:06:57.428Z,99.90
2023-04-19T01:09:25.458Z,99.90
2023-04-19T01:11:55.213Z,99.90
2023-04-19T01:14:23.170Z,99.90
2023-04-19T01:16:51.705Z,99.90
2023-04-19T01:19:19.707Z,99.90
2023-04-19T01:21:47.688Z,99.90
2023-04-19T01:24:17.227Z,99.90
2023-04-19T01:26:45.453Z,99.90
2023-04-19T01:29:13.436Z,99.90
2023-04-19T01:31:41.664Z,99.90
2023-04-19T01:34:09.724Z,99.90
2023-04-19T01:36:37.665Z,99.90
2023-04-19T01:39:06.202Z,99.90
2023-04-19T01:41:35.546Z,99.90
2023-04-19T01:44:03.550Z,99.90
2023-04-19T01:46:31.615Z,99.90
2023-04-19T01:48:59.628Z,99.90
2023-04-19T01:51:27.881Z,99.90
2023-04-19T01:53:55.862Z,99.90
2023-04-19T01:56:23.910Z,99.90
2023-04-19T01:58:53.266Z,99.90
2023-04-19T02:01:21.479Z,99.90
2023-04-19T02:03:49.671Z,99.90
2023-04-19T02:06:17.793Z,99.90
2023-04-19T02:08:45.805Z,99.90
2023-04-19T02:11:15.492Z,99.90
2023-04-19T02:13:44.027Z,99.90
2023-04-19T02:16:13.472Z,99.90
2023-04-19T02:18:41.639Z,99.90
2023-04-19T02:21:10.948Z,99.90
2023-04-19T02:23:39.020Z,99.90
2023-04-19T02:26:07.072Z,99.90
2023-04-19T02:28:35.069Z,99.90
2023-04-19T02:31:06.673Z,99.90
2023-04-19T02:33:36.474Z,99.90
2023-04-19T02:36:04.709Z,99.90
2023-04-19T02:38:32.673Z,99.90
2023-04-19T02:41:01.697Z,99.90
2023-04-19T02:43:29.687Z,99.90
2023-04-19T02:45:57.670Z,99.90
2023-04-19T02:48:25.675Z,99.90
2023-04-19T02:50:55.091Z,99.90
2023-04-19T02:53:23.109Z,99.90
2023-04-19T02:55:51.119Z,99.90
2023-04-19T02:58:19.210Z,99.90
2023-04-19T03:00:47.140Z,99.90
2023-04-19T03:03:15.235Z,99.90
2023-04-19T03:05:43.308Z,99.90
2023-04-19T03:08:12.644Z,99.90
2023-04-19T03:10:40.725Z,99.90
2023-04-19T03:13:09.242Z,99.90
2023-04-19T03:15:37.279Z,99.90
2023-04-19T03:18:05.469Z,99.90
2023-04-19T03:20:34.044Z,99.90
2023-04-19T03:23:02.393Z,99.90
2023-04-19T03:25:32.119Z,99.90
2023-04-19T03:28:00.107Z,99.90
2023-04-19T03:30:28.074Z,99.90
2023-04-19T03:32:56.219Z,99.90
2023-04-19T03:35:26.261Z,99.90
2023-04-19T03:37:54.307Z,99.90
2023-04-19T03:40:22.693Z,99.90
2023-04-19T03:42:52.043Z,99.90
2023-04-19T03:45:20.356Z,99.90
2023-04-19T03:47:48.320Z,99.90
2023-04-19T03:50:16.368Z,99.90
2023-04-19T03:52:44.337Z,99.90
2023-04-19T03:55:14.056Z,99.90
2023-04-19T03:57:42.244Z,99.90
2023-04-19T04:00:13.241Z,99.90
2023-04-19T04:02:41.408Z,99.90
2023-04-19T04:05:09.895Z,99.90
2023-04-19T04:07:37.973Z,99.90
2023-04-19T04:10:07.014Z,99.90
2023-04-19T04:12:35.063Z,99.90
2023-04-19T04:15:03.392Z,99.90
2023-04-19T04:17:32.788Z,99.90
2023-04-19T04:20:01.341Z,99.90
2023-04-19T04:22:29.313Z,99.90
2023-04-19T04:24:58.211Z,99.90
2023-04-19T04:27:26.216Z,99.90
2023-04-19T04:29:54.503Z,99.90
2023-04-19T04:32:23.482Z,99.90
2023-04-19T04:34:53.122Z,99.90
2023-04-19T04:37:21.135Z,99.90
2023-04-19T04:39:49.133Z,99.90
2023-04-19T04:42:17.620Z,99.90
2023-04-19T04:44:47.349Z,99.90
2023-04-19T04:47:15.393Z,99.90
2023-04-19T04:49:43.411Z,99.90
2023-04-19T04:52:12.840Z,99.90
2023-04-19T04:54:41.169Z,99.90
2023-04-19T04:57:10.069Z,99.90
2023-04-19T04:59:38.043Z,99.90
2023-04-19T05:02:06.119Z,99.90
2023-04-19T05:04:34.314Z,99.90
2023-04-19T05:07:02.493Z,99.90
2023-04-19T05:09:31.823Z,99.90
2023-04-19T05:11:59.777Z,99.90
2023-04-19T05:14:27.737Z,99.90
2023-04-19T05:16:55.726Z,99.90
2023-04-19T05:19:23.700Z,99.90
2023-04-19T05:21:52.753Z,99.90
2023-04-19T05:24:20.709Z,99.90
2023-04-19T05:26:50.025Z,99.90
2023-04-19T05:29:18.557Z,99.90
2023-04-19T05:31:46.606Z,99.90
2023-04-19T05:34:14.784Z,99.90
2023-04-19T05:36:42.992Z,99.90
2023-04-19T05:39:10.964Z,99.90
2023-04-19T05:41:38.919Z,99.90
2023-04-19T05:44:08.310Z,99.90
2023-04-19T05:46:36.694Z,99.90
2023-04-19T05:49:04.791Z,99.90
2023-04-19T05:51:32.892Z,99.90
2023-04-19T05:54:01.833Z,99.90
2023-04-19T05:56:29.990Z,99.90
2023-04-19T05:58:58.350Z,99.90
2023-04-19T06:01:27.770Z,99.90
2023-04-19T06:03:56.083Z,99.90
2023-04-19T06:06:24.660Z,99.90
2023-04-19T06:08:54.906Z,99.90
2023-04-19T06:11:31.283Z,99.90
2023-04-19T06:14:03.020Z,99.90
2023-04-19T06:16:32.447Z,99.90
2023-04-19T06:19:00.477Z,99.90
2023-04-19T06:21:30.951Z,99.90
2023-04-19T06:23:58.919Z,99.90
2023-04-19T06:26:26.972Z,99.90
2023-04-19T06:28:54.956Z,99.90
2023-04-19T06:31:23.040Z,99.90
2023-04-19T06:33:52.413Z,99.90
2023-04-19T06:36:21.313Z,99.90
2023-04-19T06:38:50.061Z,99.90
2023-04-19T06:41:18.162Z,99.90
2023-04-19T06:43:46.370Z,99.90
2023-04-19T06:46:16.193Z,99.90
2023-04-19T06:48:45.333Z,99.90
2023-04-19T06:51:15.812Z,99.90
2023-04-19T06:53:44.758Z,99.90
2023-04-19T06:56:13.537Z,99.90
2023-04-19T06:58:41.503Z,99.90
2023-04-19T07:01:09.516Z,99.90
2023-04-19T07:03:37.647Z,99.90
2023-04-19T07:06:06.709Z,99.90
2023-04-19T07:08:48.822Z,99.90
2023-04-19T07:11:19.277Z,99.90
2023-04-19T07:13:48.413Z,99.90
2023-04-19T07:16:17.524Z,99.90
2023-04-19T07:18:45.639Z,99.90
2023-04-19T07:21:13.944Z,99.90
2023-04-19T07:23:43.328Z,99.90
2023-04-19T07:26:11.416Z,99.90
2023-04-19T07:28:40.765Z,99.90
2023-04-19T07:31:08.788Z,99.90
2023-04-19T07:33:36.993Z,99.90
2023-04-19T07:36:06.558Z,99.90
2023-04-19T07:38:34.596Z,99.90
2023-04-19T07:41:05.253Z,99.90
2023-04-19T07:43:33.239Z,99.90
2023-04-19T07:46:01.268Z,99.90
2023-04-19T07:48:29.246Z,99.90
2023-04-19T07:50:57.218Z,99.90
2023-04-19T07:53:25.862Z,99.90
2023-04-19T07:55:53.872Z,99.90
2023-04-19T07:58:23.188Z,99.90
2023-04-19T08:00:51.172Z,99.90
2023-04-19T08:03:19.393Z,99.90
2023-04-19T08:05:47.577Z,99.90
2023-04-19T08:08:15.582Z,99.90
2023-04-19T08:10:43.582Z,99.90
2023-04-19T08:13:11.760Z,99.90
2023-04-19T08:18:12.080Z,99.90
2023-04-19T08:20:42.562Z,99.90
2023-04-19T08:23:21.579Z,99.90
2023-04-19T08:25:53.931Z,99.90
2023-04-19T08:28:21.905Z,99.90
2023-04-19T08:30:51.399Z,99.90
2023-04-19T08:33:19.360Z,99.90
2023-04-19T08:35:47.345Z,99.90
2023-04-19T08:38:15.409Z,99.90
2023-04-19T08:40:47.795Z,99.90
2023-04-19T08:43:17.971Z,99.90
2023-04-19T08:45:48.068Z,99.90
2023-04-19T08:48:18.686Z,99.90
2023-04-19T08:51:03.679Z,99.90
2023-04-19T08:53:35.598Z,99.90
2023-04-19T08:56:17.537Z,99.90
2023-04-19T09:01:32.997Z,99.90
2023-04-19T09:04:17.272Z,99.90
2023-04-19T09:06:51.107Z,99.90
2023-04-19T09:09:33.962Z,99.90
2023-04-19T09:12:16.233Z,99.90
2023-04-19T09:14:59.784Z,99.90
2023-04-19T09:17:29.015Z,99.90
2023-04-19T09:19:59.116Z,99.90
2023-04-19T09:22:27.266Z,99.90
2023-04-19T09:27:30.414Z,99.90
2023-04-19T09:30:00.279Z,99.90
2023-04-19T09:32:29.521Z,99.90
2023-04-19T09:35:00.317Z,99.90
2023-04-19T09:39:59.320Z,99.90
2023-04-19T09:48:02.340Z,99.90
2023-04-19T09:50:32.711Z,99.90
2023-04-19T09:53:02.798Z,99.90
2023-04-19T09:55:38.568Z,99.90
2023-04-19T09:58:17.059Z,99.90
2023-04-19T10:00:50.087Z,99.90
2023-04-19T10:03:22.322Z,99.90
2023-04-19T10:05:52.128Z,99.90
2023-04-19T10:08:20.897Z,99.90
2023-04-19T10:10:54.876Z,99.90
2023-04-19T10:13:26.658Z,99.90
2023-04-19T10:16:01.853Z,99.90
2023-04-19T10:18:40.082Z,99.90
2023-04-19T10:21:11.852Z,99.90
2023-04-19T10:23:40.029Z,99.90
2023-04-19T10:26:08.201Z,99.90
2023-04-19T10:28:38.080Z,99.90
2023-04-19T10:31:06.690Z,99.90
2023-04-19T10:33:38.091Z,99.90
2023-04-19T10:36:11.862Z,99.90
2023-04-19T10:38:41.576Z,99.90
2023-04-19T10:41:16.889Z,99.90
2023-04-19T10:43:47.591Z,99.00
2023-04-19T10:46:18.096Z,96.80
2023-04-19T10:48:54.585Z,94.80
2023-04-19T10:51:28.121Z,95.50
2023-04-19T10:54:00.633Z,94.90
2023-04-19T10:57:00.416Z,94.30
2023-04-19T10:59:30.501Z,95.10
2023-04-19T11:01:59.789Z,96.50
2023-04-19T11:05:05.522Z,97.60
2023-04-19T11:07:42.328Z,93.00
2023-04-19T11:10:11.505Z,94.60
2023-04-19T11:12:43.948Z,96.50
2023-04-19T11:15:12.113Z,93.50
2023-04-19T11:17:40.866Z,93.90
2023-04-19T11:20:11.181Z,93.20
2023-04-19T11:22:41.756Z,93.20
2023-04-19T11:25:12.130Z,90.30
2023-04-19T11:27:40.977Z,90.60
2023-04-19T11:30:11.387Z,92.30
2023-04-19T11:32:45.805Z,92.50
2023-04-19T11:35:13.959Z,93.80
2023-04-19T11:37:43.497Z,94.50
2023-04-19T11:40:16.699Z,93.20
2023-04-19T11:42:45.017Z,93.60
2023-04-19T11:45:25.735Z,93.60
2023-04-19T11:47:57.484Z,93.50
2023-04-19T11:50:36.500Z,92.70
2023-04-19T11:53:17.071Z,92.30
2023-04-19T11:55:46.565Z,92.70
2023-04-19T11:58:33.783Z,92.70
2023-04-19T12:01:06.535Z,93.10
2023-04-19T12:03:35.107Z,93.20
2023-04-19T12:06:05.026Z,93.10
2023-04-19T12:08:36.384Z,92.10
2023-04-19T12:11:05.607Z,91.90
2023-04-19T12:13:34.470Z,92.30
2023-04-19T12:16:02.658Z,90.50
2023-04-19T12:18:44.470Z,90.60
2023-04-19T12:21:13.738Z,91.90
2023-04-19T12:23:43.070Z,90.80
2023-04-19T12:26:11.573Z,91.90
2023-04-19T12:28:39.582Z,91.60
2023-04-19T12:31:07.524Z,91.90
2023-04-19T12:33:35.520Z,92.30
2023-04-19T12:36:03.777Z,92.10
2023-04-19T12:38:31.777Z,92.70
2023-04-19T12:41:01.065Z,92.20
2023-04-19T12:43:30.130Z,91.20
2023-04-19T12:45:58.347Z,90.80
2023-04-19T12:48:26.488Z,92.20
2023-04-19T12:50:55.565Z,90.50
2023-04-19T12:53:24.341Z,87.10
2023-04-19T12:55:52.367Z,86.50
2023-04-19T12:58:21.778Z,83.80
2023-04-19T13:00:50.565Z,82.50
2023-04-19T13:03:18.688Z,82.80
2023-04-19T13:05:46.832Z,84.70
2023-04-19T13:08:14.811Z,85.10
2023-04-19T13:10:42.752Z,87.60
2023-04-19T13:13:10.889Z,89.00
2023-04-19T13:15:41.925Z,90.00
2023-04-19T13:18:10.396Z,88.00
2023-04-19T13:20:38.374Z,85.30
2023-04-19T13:23:06.375Z,83.40
2023-04-19T13:25:34.319Z,82.00
2023-04-19T13:28:02.340Z,82.30
2023-04-19T13:30:30.316Z,83.80
2023-04-19T13:33:01.021Z,84.00
2023-04-19T13:35:29.210Z,86.20
2023-04-19T13:37:57.185Z,85.10
2023-04-19T13:40:25.296Z,84.90
2023-04-19T13:42:54.316Z,86.80
2023-04-19T13:45:22.374Z,87.10
2023-04-19T13:47:50.389Z,88.10
2023-04-19T13:50:19.784Z,86.50
2023-04-19T13:52:47.765Z,86.20
2023-04-19T13:55:15.735Z,86.30
2023-04-19T13:57:43.991Z,85.90
2023-04-19T14:00:12.730Z,87.70
2023-04-19T14:02:40.962Z,85.30
2023-04-19T14:05:09.936Z,87.10
2023-04-19T14:07:40.251Z,84.60
2023-04-19T14:10:10.195Z,85.90
2023-04-19T14:12:38.180Z,85.00
2023-04-19T14:15:06.770Z,84.80
2023-04-19T14:17:36.029Z,82.80
2023-04-19T14:20:06.883Z,82.30
2023-04-19T14:22:35.666Z,81.20
2023-04-19T14:25:05.563Z,81.90
2023-04-19T14:27:34.021Z,83.70
2023-04-19T14:30:01.994Z,83.00
2023-04-19T14:32:30.030Z,78.10
2023-04-19T14:34:58.138Z,77.60
2023-04-19T14:37:26.205Z,77.40
2023-04-19T14:39:54.308Z,77.20
2023-04-19T14:42:23.635Z,76.80
2023-04-19T14:44:52.876Z,78.20
2023-04-19T14:47:21.295Z,78.50
2023-04-19T14:49:49.556Z,78.00
2023-04-19T14:52:17.842Z,78.60
2023-04-19T14:54:46.388Z,78.70
2023-04-19T14:57:14.458Z,79.40
2023-04-19T14:59:43.812Z,77.20
2023-04-19T15:02:13.342Z,76.50
2023-04-19T15:04:42.160Z,77.40
2023-04-19T15:07:10.661Z,78.00
2023-04-19T15:09:38.617Z,79.90
2023-04-19T15:12:06.886Z,79.60
2023-04-19T15:14:34.963Z,78.20
2023-04-19T15:17:04.456Z,78.70
2023-04-19T15:19:32.621Z,79.10
2023-04-19T15:22:00.562Z,80.10
2023-04-19T15:24:28.587Z,80.50
2023-04-19T15:26:56.707Z,78.00
2023-04-19T15:29:24.734Z,80.60
2023-04-19T15:31:52.812Z,79.70
2023-04-19T15:34:22.181Z,78.60
2023-04-19T15:36:50.189Z,79.60
2023-04-19T15:39:18.360Z,78.60
2023-04-19T15:41:46.434Z,79.20
2023-04-19T15:44:14.712Z,78.10
2023-04-19T15:46:42.708Z,76.10
2023-04-19T15:49:10.811Z,73.60
2023-04-19T15:51:40.571Z,72.30
2023-04-19T15:54:08.529Z,72.70
2023-04-19T15:56:36.480Z,71.20
2023-04-19T15:59:04.428Z,72.30
2023-04-19T16:01:32.415Z,71.80
2023-04-19T16:04:00.717Z,72.50
2023-04-19T16:06:28.945Z,71.20
2023-04-19T16:08:58.337Z,72.30
2023-04-19T16:11:26.362Z,72.90
2023-04-19T16:13:54.356Z,71.70
2023-04-19T16:16:22.323Z,72.80
2023-04-19T16:18:50.300Z,73.40
2023-04-19T16:21:18.291Z,69.80
2023-04-19T16:23:46.269Z,71.30
2023-04-19T16:26:15.605Z,72.10
2023-04-19T16:28:43.548Z,72.90
2023-04-19T16:31:12.074Z,74.50
2023-04-19T16:33:40.029Z,74.10
2023-04-19T16:36:08.034Z,74.60
2023-04-19T16:38:36.004Z,73.50
2023-04-19T16:41:05.633Z,73.80
2023-04-19T16:43:35.077Z,74.50
2023-04-19T16:46:03.081Z,74.70
2023-04-19T16:48:31.035Z,75.00
2023-04-19T16:50:59.079Z,74.90
2023-04-19T16:53:27.039Z,75.60
2023-04-19T16:55:56.535Z,76.10
2023-04-19T16:58:24.732Z,74.80
2023-04-19T17:00:54.126Z,76.20
2023-04-19T17:03:22.367Z,76.70
2023-04-19T17:05:50.480Z,77.10
2023-04-19T17:08:18.447Z,78.00
2023-04-19T17:10:46.404Z,78.70
2023-04-19T17:13:14.373Z,79.20
2023-04-19T17:15:42.428Z,79.10
2023-04-19T17:18:11.793Z,79.20
2023-04-19T17:20:39.780Z,79.70
2023-04-19T17:23:07.803Z,80.30
2023-04-19T17:25:35.854Z,81.50
2023-04-19T17:28:04.253Z,80.90
2023-04-19T17:30:32.287Z,81.60
2023-04-19T17:33:00.256Z,81.50
2023-04-19T17:35:29.690Z,82.00
2023-04-19T17:37:57.680Z,82.70
2023-04-19T17:40:28.013Z,83.60
2023-04-19T17:42:57.356Z,84.00
2023-04-19T17:45:25.514Z,83.60
2023-04-19T17:47:56.260Z,84.10
2023-04-19T17:50:24.608Z,84.40
2023-04-19T17:52:54.992Z,85.10
2023-04-19T17:55:23.006Z,85.00
2023-04-19T17:57:50.952Z,84.30
2023-04-19T18:00:19.269Z,84.50
2023-04-19T18:02:47.313Z,85.00
2023-04-19T18:05:15.614Z,85.00
2023-04-19T18:07:43.588Z,85.10
2023-04-19T18:10:13.056Z,85.50
2023-04-19T18:12:41.055Z,86.30
2023-04-19T18:15:10.428Z,86.20
2023-04-19T18:17:38.468Z,86.90
2023-04-19T18:20:08.304Z,87.20
2023-04-19T18:22:36.470Z,88.00
2023-04-19T18:25:04.665Z,89.30
2023-04-19T18:27:34.023Z,89.80
2023-04-19T18:30:03.817Z,90.10
2023-04-19T18:32:32.152Z,90.00
2023-04-19T18:35:00.225Z,90.30
2023-04-19T18:37:28.218Z,90.60
2023-04-19T18:39:56.243Z,90.60
2023-04-19T18:42:24.347Z,90.80
2023-04-19T18:44:54.772Z,90.80
2023-04-19T18:47:22.967Z,90.70
2023-04-19T18:50:03.240Z,91.00
2023-04-19T18:52:32.912Z,90.90
2023-04-19T18:55:01.068Z,91.00
2023-04-19T18:57:30.635Z,91.30
2023-04-19T19:00:05.426Z,91.30
2023-04-19T19:02:36.113Z,91.40
2023-04-19T19:05:07.351Z,91.50
2023-04-19T19:07:37.132Z,91.60
2023-04-19T19:10:18.645Z,91.80
2023-04-19T19:12:49.101Z,91.90
2023-04-19T19:15:19.039Z,92.10
2023-04-19T19:17:49.826Z,92.20
2023-04-19T19:20:18.818Z,92.40
2023-04-19T19:22:46.881Z,92.70
2023-04-19T19:25:14.955Z,93.00
2023-04-19T19:27:58.477Z,92.90
2023-04-19T19:30:33.914Z,93.10
2023-04-19T19:33:02.697Z,93.20
2023-04-19T19:35:30.901Z,93.50
2023-04-19T19:37:58.900Z,93.50
2023-04-19T19:40:31.081Z,93.60
2023-04-19T19:43:00.641Z,93.70
2023-04-19T19:45:29.350Z,93.80
2023-04-19T19:48:00.111Z,93.90
2023-04-19T19:53:00.765Z,94.10
2023-04-19T19:55:30.142Z,94.60
2023-04-19T20:03:02.220Z,94.40
2023-04-19T20:05:30.831Z,94.40
2023-04-19T20:08:10.550Z,94.40
2023-04-19T20:10:41.678Z,94.50
2023-04-19T20:13:09.980Z,94.60
2023-04-19T20:15:38.665Z,94.70
2023-04-19T20:18:08.289Z,94.70
2023-04-19T20:20:37.158Z,94.80
2023-04-19T20:23:05.178Z,94.70
2023-04-19T20:25:33.484Z,94.70
2023-04-19T20:28:01.915Z,94.60
2023-04-19T20:30:29.894Z,94.40
2023-04-19T20:32:57.996Z,94.40
2023-04-19T20:35:27.460Z,94.50
2023-04-19T20:38:02.265Z,94.40
2023-04-19T20:40:31.857Z,94.20
2023-04-19T20:42:59.882Z,94.20
2023-04-19T20:45:28.531Z,94.30
2023-04-19T20:47:58.430Z,94.10
2023-04-19T20:50:27.953Z,93.70
2023-04-19T20:52:56.687Z,93.80
2023-04-19T20:55:25.067Z,93.60
2023-04-19T20:57:53.312Z,93.50
2023-04-19T21:00:21.504Z,93.60
2023-04-19T21:02:50.124Z,93.00
2023-04-19T21:05:18.309Z,93.30
2023-04-19T21:07:47.703Z,92.80
2023-04-19T21:10:17.321Z,92.90
2023-04-19T21:12:45.553Z,93.00
2023-04-19T21:15:13.622Z,92.80
2023-04-19T21:17:41.730Z,92.70
2023-04-19T21:20:14.106Z,92.90
2023-04-19T21:22:42.986Z,93.00
2023-04-19T21:25:13.497Z,92.80
2023-04-19T21:27:42.229Z,93.00
2023-04-19T21:30:11.527Z,93.00
2023-04-19T21:32:39.706Z,93.20
2023-04-19T21:35:08.434Z,93.20
2023-04-19T21:37:37.140Z,93.10
2023-04-19T21:40:05.873Z,93.20
2023-04-19T21:42:35.622Z,93.40
2023-04-19T21:45:03.650Z,93.40
2023-04-19T21:47:32.067Z,93.70
2023-04-19T21:50:00.230Z,93.70
2023-04-19T21:52:28.267Z,93.80
2023-04-19T21:54:56.257Z,93.80
2023-04-19T21:57:25.186Z,93.90
2023-04-19T21:59:54.809Z,94.00
2023-04-19T22:02:22.913Z,93.90
2023-04-19T22:04:50.951Z,93.90
2023-04-19T22:07:19.409Z,94.00
2023-04-19T22:09:47.679Z,93.90
2023-04-19T22:12:15.698Z,93.90
2023-04-19T22:14:43.685Z,94.00
2023-04-19T22:17:13.166Z,94.10
2023-04-19T22:19:41.134Z,94.00
2023-04-19T22:22:09.139Z,94.10
2023-04-19T22:24:44.001Z,94.10
2023-04-19T22:27:21.636Z,94.10
2023-04-19T22:29:49.586Z,94.10
2023-04-19T22:32:19.053Z,94.10
2023-04-19T22:34:47.163Z,94.20
2023-04-19T22:37:15.509Z,94.20
2023-04-19T22:39:43.477Z,94.30
2023-04-19T22:42:11.503Z,94.40
2023-04-19T22:44:39.610Z,94.60
2023-04-19T22:47:07.740Z,94.80
2023-04-19T22:49:37.051Z,95.10
2023-04-19T22:52:05.487Z,95.20
2023-04-19T22:54:33.469Z,95.40
2023-04-19T22:57:01.696Z,95.50
2023-04-19T22:59:29.655Z,95.80
2023-04-19T23:01:57.674Z,96.00
2023-04-19T23:04:25.695Z,96.10
2023-04-19T23:06:55.066Z,96.90
2023-04-19T23:09:23.017Z,97.50
2023-04-19T23:11:50.989Z,98.30
2023-04-19T23:14:19.092Z,98.90
2023-04-19T23:16:47.089Z,99.80
2023-04-19T23:19:16.487Z,99.90
2023-04-19T23:21:44.690Z,99.90
2023-04-19T23:24:14.020Z,99.90
2023-04-19T23:26:41.991Z,99.90
2023-04-19T23:29:09.953Z,99.90
2023-04-19T23:31:37.987Z,99.90
2023-04-19T23:34:05.999Z,99.90
2023-04-19T23:36:33.992Z,99.90
2023-04-19T23:39:01.940Z,99.90
2023-04-19T23:41:31.279Z,99.90
2023-04-19T23:43:59.211Z,99.90
2023-04-19T23:46:27.345Z,99.90
2023-04-19T23:48:55.456Z,99.90
2023-04-19T23:51:23.465Z,99.90
2023-04-19T23:53:51.410Z,99.90
2023-04-19T23:56:19.404Z,99.90
2023-04-19T23:58:48.823Z,99.90
